Time;durP1;ratioP1;P1;durP2;ratioP2;P2;SDS_P1;SDS_P2;PMS_P1;PMS_P2;Temp;Humidity;BMP_temperature;BMP_pressure;BME280_temperature;BME280_humidity;BME280_pressure;Samples;Min_cycle;Max_cycle;Signal;HPM_P1;HPM_P2
2022/11/29 00:01:03;;;;;;;35.03;22.38;;;;;;;6.49;100.00;100174.03;4979651;28;20046;-73
2022/11/29 00:03:30;;;;;;;37.10;22.98;;;;;;;6.47;100.00;100167.94;4984548;28;20077;-74
2022/11/29 00:06:07;;;;;;;35.90;23.85;;;;;;;6.41;100.00;100160.28;4984965;28;20056;-74
2022/11/29 00:08:35;;;;;;;39.53;23.05;;;;;;;6.48;100.00;100168.81;4994156;28;20057;-73
2022/11/29 00:11:06;;;;;;;37.22;23.25;;;;;;;6.28;100.00;100145.84;5001601;28;20562;-73
2022/11/29 00:13:33;;;;;;;36.58;22.30;;;;;;;6.43;100.00;100176.00;4999508;28;20042;-72
2022/11/29 00:16:04;;;;;;;39.85;23.27;;;;;;;6.40;100.00;100171.72;4983167;28;20445;-74
2022/11/29 00:18:30;;;;;;;33.47;21.50;;;;;;;6.38;100.00;100170.91;4995907;28;20129;-72
2022/11/29 00:20:57;;;;;;;39.33;22.75;;;;;;;6.37;100.00;100170.94;4990380;28;20481;-71
2022/11/29 00:23:24;;;;;;;35.30;22.27;;;;;;;6.34;100.00;100167.50;4997282;28;20082;-73
2022/11/29 00:25:51;;;;;;;31.23;21.65;;;;;;;6.37;100.00;100165.69;4981074;28;20065;-74
2022/11/29 00:28:18;;;;;;;36.55;23.42;;;;;;;6.36;100.00;100164.81;4989473;28;20054;-73
2022/11/29 00:30:44;;;;;;;36.97;22.77;;;;;;;6.42;100.00;100174.28;4996578;28;20053;-74
2022/11/29 00:33:11;;;;;;;38.25;22.45;;;;;;;6.42;100.00;100177.78;4991516;28;20482;-76
2022/11/29 00:35:37;;;;;;;35.00;22.55;;;;;;;6.28;100.00;100151.09;4978833;28;20560;-73
2022/11/29 00:38:04;;;;;;;35.60;22.00;;;;;;;6.42;100.00;100169.91;4995634;28;20065;-71
2022/11/29 00:40:30;;;;;;;36.63;22.98;;;;;;;6.45;100.00;100164.53;4991942;28;20488;-75
2022/11/29 00:42:57;;;;;;;37.90;21.58;;;;;;;6.47;100.00;100170.56;4987485;28;20052;-72
2022/11/29 00:45:23;;;;;;;37.08;23.15;;;;;;;6.32;100.00;100150.06;4975845;28;20489;-72
2022/11/29 00:47:50;;;;;;;36.17;22.70;;;;;;;6.46;100.00;100170.63;4992037;28;20054;-74
2022/11/29 00:50:16;;;;;;;36.65;22.52;;;;;;;6.45;100.00;100172.44;4993653;28;20046;-73
2022/11/29 00:52:43;;;;;;;41.28;23.77;;;;;;;6.43;100.00;100171.63;4995012;28;20096;-73
2022/11/29 00:55:09;;;;;;;36.22;21.67;;;;;;;6.42;100.00;100166.41;4981592;28;20153;-72
2022/11/29 00:57:36;;;;;;;34.70;22.52;;;;;;;6.44;100.00;100175.97;4991525;28;20382;-72
2022/11/29 01:00:03;;;;;;;35.90;22.63;;;;;;;6.43;100.00;100176.00;4992558;28;20051;-72
2022/11/29 01:02:30;;;;;;;39.22;23.58;;;;;;;6.37;100.00;100171.81;4995140;28;20050;-72
2022/11/29 01:04:56;;;;;;;41.08;22.65;;;;;;;6.14;100.00;100142.81;4978414;28;20154;-72
2022/11/29 01:07:23;;;;;;;37.83;23.02;;;;;;;6.26;100.00;100172.19;4989558;28;20085;-72
2022/11/29 01:09:50;;;;;;;37.92;23.73;;;;;;;6.16;100.00;100154.97;4991921;28;20136;-70
2022/11/29 01:12:16;;;;;;;33.55;22.45;;;;;;;6.29;100.00;100182.59;4994490;28;20050;-72
2022/11/29 01:14:43;;;;;;;33.47;22.67;;;;;;;6.28;100.00;100182.66;4984501;28;20507;-71
2022/11/29 01:17:10;;;;;;;35.05;22.33;;;;;;;6.17;100.00;100158.44;4979085;28;20203;-70
2022/11/29 01:19:37;;;;;;;38.40;22.90;;;;;;;6.33;100.00;100186.81;4987226;28;20058;-74
2022/11/29 01:22:04;;;;;;;35.30;22.45;;;;;;;6.36;100.00;100196.38;4990732;28;20655;-72
2022/11/29 01:24:31;;;;;;;34.67;22.17;;;;;;;6.38;100.00;100191.06;4986949;28;20054;-70
2022/11/29 01:26:57;;;;;;;38.80;23.50;;;;;;;6.15;100.00;100155.88;4986685;28;20065;-72
2022/11/29 01:29:24;;;;;;;37.92;23.05;;;;;;;6.39;100.00;100198.06;4995702;28;20069;-72
2022/11/29 01:31:50;;;;;;;39.85;24.55;;;;;;;6.20;100.00;100171.50;4993815;28;20080;-71
2022/11/29 01:34:17;;;;;;;36.20;23.30;;;;;;;6.33;100.00;100196.47;4985835;28;20492;-70
2022/11/29 01:36:43;;;;;;;38.45;23.20;;;;;;;6.39;100.00;100193.66;4980987;28;20129;-69
2022/11/29 01:39:10;;;;;;;43.17;24.77;;;;;;;6.38;100.00;100194.56;4993705;28;20061;-70
2022/11/29 01:41:36;;;;;;;39.05;23.45;;;;;;;6.37;100.00;100198.09;4996132;28;20055;-69
2022/11/29 01:44:12;;;;;;;39.15;22.85;;;;;;;6.39;100.00;100198.06;4991813;28;20042;-70
2022/11/29 01:46:41;;;;;;;39.65;24.05;;;;;;;6.37;100.00;100198.09;4984600;28;20058;-70
2022/11/29 01:49:14;;;;;;;41.55;24.17;;;;;;;6.34;100.00;100198.19;4986248;28;20050;-71
2022/11/29 01:51:49;;;;;;;36.92;22.73;;;;;;;6.32;100.00;100205.28;4990833;28;20054;-68
2022/11/29 01:54:16;;;;;;;38.28;22.80;;;;;;;6.34;100.00;100201.69;4987449;28;20047;-69
2022/11/29 01:56:45;;;;;;;39.15;23.60;;;;;;;6.39;100.00;100205.94;4985051;28;20050;-69
2022/11/29 01:59:17;;;;;;;37.47;23.95;;;;;;;6.42;100.00;100196.19;4992379;28;20038;-71
2022/11/29 02:01:44;;;;;;;39.58;24.00;;;;;;;6.19;100.00;100161.91;4993556;28;20125;-71
2022/11/29 02:04:11;;;;;;;38.35;23.17;;;;;;;6.47;100.00;100198.66;4984256;28;20141;-71
2022/11/29 02:06:38;;;;;;;36.40;23.35;;;;;;;6.46;100.00;100186.41;4984614;28;20049;-70
2022/11/29 02:09:17;;;;;;;39.08;24.00;;;;;;;6.48;100.00;100188.09;4987830;28;20125;-71
2022/11/29 02:12:01;;;;;;;36.30;22.77;;;;;;;6.52;100.00;100197.59;4985716;28;20141;-70
2022/11/29 02:14:45;;;;;;;37.40;22.25;;;;;;;6.55;100.00;100189.59;4986321;28;20249;-71
2022/11/29 02:17:49;;;;;;;37.95;23.13;;;;;;;6.55;100.00;100191.38;4982980;28;20042;-70
2022/11/29 02:20:41;;;;;;;36.60;22.30;;;;;;;6.54;100.00;100194.91;4992375;28;20495;-70
2022/11/29 02:23:42;;;;;;;36.85;22.80;;;;;;;6.54;100.00;100201.03;4994905;28;20056;-71
2022/11/29 02:26:37;;;;;;;39.05;23.20;;;;;;;6.55;100.00;100194.00;4973561;28;20138;-69
2022/11/29 02:29:38;;;;;;;33.38;21.58;;;;;;;6.50;100.00;100196.78;4994001;28;20052;-69
2022/11/29 02:32:48;;;;;;;32.47;21.10;;;;;;;6.41;100.00;100199.72;4996277;28;20273;-71
2022/11/29 02:35:14;;;;;;;41.03;22.92;;;;;;;6.39;100.00;100193.66;4986918;28;20547;-69
2022/11/29 02:37:58;;;;;;;40.25;24.70;;;;;;;6.25;100.00;100177.47;4985468;28;20082;-69
2022/11/29 02:40:25;;;;;;;40.40;24.65;;;;;;;6.35;100.00;100210.44;4990078;28;20050;-70
2022/11/29 02:43:13;;;;;;;40.50;24.90;;;;;;;6.33;100.00;100204.38;4986291;28;20062;-70
2022/11/29 02:45:59;;;;;;;38.38;23.65;;;;;;;6.13;100.00;100162.97;4976589;28;20062;-71
2022/11/29 02:48:41;;;;;;;43.67;25.42;;;;;;;6.36;100.00;100206.91;4985838;28;20117;-70
2022/11/29 02:51:19;;;;;;;43.08;25.48;;;;;;;6.34;100.00;100204.31;4990421;28;20070;-71
2022/11/29 02:53:56;;;;;;;39.78;24.83;;;;;;;6.36;100.00;100199.00;4988769;28;20080;-70
2022/11/29 02:56:36;;;;;;;41.60;24.08;;;;;;;6.40;100.00;100202.41;4978538;28;20043;-70
2022/11/29 02:59:19;;;;;;;39.17;23.83;;;;;;;6.26;100.00;100176.56;4981440;28;20042;-71
2022/11/29 03:02:00;;;;;;;37.13;23.85;;;;;;;6.29;100.00;100174.72;4992485;28;20052;-70
2022/11/29 03:04:36;;;;;;;36.38;22.85;;;;;;;6.48;100.00;100201.22;4989304;28;20049;-71
2022/11/29 03:07:19;;;;;;;40.28;24.02;;;;;;;6.33;100.00;100172.81;4977258;28;20107;-71
2022/11/29 03:10:20;;;;;;;41.05;24.98;;;;;;;6.49;100.00;100208.22;4987583;28;20049;-68
2022/11/29 03:12:50;;;;;;;36.75;22.75;;;;;;;6.31;100.00;100191.28;4988926;28;20112;-70
2022/11/29 03:15:31;;;;;;;36.80;23.13;;;;;;;6.35;100.00;100210.44;4990756;28;20086;-69
2022/11/29 03:18:13;;;;;;;37.95;23.33;;;;;;;6.25;100.00;100188.00;4986861;28;20055;-71
2022/11/29 03:20:49;;;;;;;37.53;23.38;;;;;;;6.44;100.00;100227.72;4985960;28;20057;-71
2022/11/29 03:23:18;;;;;;;38.60;24.35;;;;;;;6.44;100.00;100217.19;4990221;28;20058;-70
2022/11/29 03:25:55;;;;;;;40.45;24.50;;;;;;;6.38;100.00;100220.88;4981215;28;20054;-70
2022/11/29 03:28:22;;;;;;;42.08;24.80;;;;;;;6.39;100.00;100222.59;4989408;28;20429;-70
2022/11/29 03:31:17;;;;;;;41.33;24.63;;;;;;;6.37;100.00;100227.03;4995128;28;20060;-71
2022/11/29 03:34:16;;;;;;;40.70;24.95;;;;;;;6.39;100.00;100233.13;4986783;28;20047;-70
2022/11/29 03:36:43;;;;;;;44.30;24.80;;;;;;;6.39;100.00;100241.00;4979918;28;20543;-70
2022/11/29 03:39:32;;;;;;;39.03;23.83;;;;;;;6.35;100.00;100228.84;4995426;28;20088;-71
2022/11/29 03:42:02;;;;;;;42.97;25.00;;;;;;;6.36;100.00;100227.94;4994166;28;20511;-70
2022/11/29 03:45:03;;;;;;;41.53;25.00;;;;;;;6.41;100.00;100243.59;4989548;28;20137;-69
2022/11/29 03:47:38;;;;;;;40.78;25.05;;;;;;;6.38;100.00;100235.78;4972554;28;20406;-71
2022/11/29 03:50:12;;;;;;;39.90;25.38;;;;;;;6.41;100.00;100248.84;4988399;28;20062;-71
2022/11/29 03:52:41;;;;;;;45.20;26.52;;;;;;;6.37;100.00;100241.97;4990550;28;20073;-71
2022/11/29 03:55:28;;;;;;;40.88;24.35;;;;;;;6.39;100.00;100246.25;5004971;28;20129;-71
2022/11/29 03:58:20;;;;;;;43.85;25.83;;;;;;;6.40;100.00;100255.88;4984937;28;20129;-71
2022/11/29 04:00:47;;;;;;;42.58;25.23;;;;;;;6.38;100.00;100249.81;4994518;28;20121;-71
2022/11/29 04:03:44;;;;;;;42.92;24.88;;;;;;;6.21;100.00;100220.56;4994779;28;20050;-71
2022/11/29 04:06:35;;;;;;;41.58;24.70;;;;;;;6.30;100.00;100233.38;4986930;28;20046;-70
2022/11/29 04:09:20;;;;;;;43.25;24.52;;;;;;;6.42;100.00;100254.06;4992045;28;20054;-70
2022/11/29 04:12:14;;;;;;;39.83;23.95;;;;;;;6.42;100.00;100254.06;4990302;28;20136;-71
2022/11/29 04:15:18;;;;;;;45.72;25.80;;;;;;;6.26;100.00;100223.91;5000460;28;20141;-67
2022/11/29 04:18:14;;;;;;;44.55;24.92;;;;;;;6.20;100.00;100222.31;4984661;28;20042;-69
2022/11/29 04:21:25;;;;;;;45.95;25.35;;;;;;;6.41;100.00;100252.34;4994654;28;20134;-69
2022/11/29 04:23:58;;;;;;;44.85;25.42;;;;;;;6.40;100.00;100245.34;4959514;28;20061;-70
2022/11/29 04:26:43;;;;;;;44.55;25.65;;;;;;;6.40;100.00;100255.88;4981393;28;20069;-69
2022/11/29 04:29:16;;;;;;;42.15;25.70;;;;;;;6.41;100.00;100257.59;4992703;28;20435;-70
2022/11/29 04:32:13;;;;;;;43.20;24.58;;;;;;;6.40;100.00;100261.13;4992362;28;20515;-69
2022/11/29 04:35:01;;;;;;;38.58;23.73;;;;;;;6.38;100.00;100260.31;4988336;28;20050;-68
2022/11/29 04:38:03;;;;;;;44.10;24.45;;;;;;;6.34;100.00;100256.06;4981106;28;20133;-68
2022/11/29 04:40:54;;;;;;;43.83;24.95;;;;;;;6.33;100.00;100254.34;4989089;28;20157;-72
2022/11/29 04:43:39;;;;;;;41.47;24.05;;;;;;;6.35;100.00;100263.03;4986915;28;20610;-68
2022/11/29 04:46:06;;;;;;;47.03;25.15;;;;;;;6.42;100.00;100267.22;4985851;28;20428;-71
2022/11/29 04:48:51;;;;;;;43.40;25.08;;;;;;;6.42;100.00;100269.84;4982774;28;20100;-68
2022/11/29 04:51:48;;;;;;;44.75;25.02;;;;;;;6.32;100.00;100242.09;4992498;28;20085;-69
2022/11/29 04:54:24;;;;;;;45.67;24.48;;;;;;;6.41;100.00;100262.84;4981467;28;20058;-69
2022/11/29 04:57:20;;;;;;;40.53;24.20;;;;;;;6.47;100.00;100274.94;4983748;28;20080;-68
2022/11/29 04:59:56;;;;;;;45.28;24.80;;;;;;;6.48;100.00;100282.78;4999344;28;20148;-71
2022/11/29 05:02:31;;;;;;;51.97;25.92;;;;;;;6.48;100.00;100290.66;4998906;28;20054;-70
2022/11/29 05:05:03;;;;;;;44.45;23.75;;;;;;;6.47;100.00;100288.94;4992629;28;20080;-70
2022/11/29 05:07:53;;;;;;;46.08;24.25;;;;;;;6.30;100.00;100264.94;4991319;28;20058;-72
2022/11/29 05:10:30;;;;;;;46.10;24.63;;;;;;;6.44;100.00;100288.22;4996441;28;20101;-71
2022/11/29 05:13:19;;;;;;;45.17;24.98;;;;;;;6.46;100.00;100297.75;4990808;28;20362;-71
2022/11/29 05:16:13;;;;;;;45.75;25.35;;;;;;;6.44;100.00;100294.34;4991858;28;20160;-70
2022/11/29 05:18:46;;;;;;;50.55;26.75;;;;;;;6.31;100.00;100271.94;4985420;28;20042;-70
2022/11/29 05:21:23;;;;;;;46.20;25.45;;;;;;;6.47;100.00;100304.72;4982323;28;20064;-68
2022/11/29 05:24:06;;;;;;;44.10;24.58;;;;;;;6.29;100.00;100274.63;4988602;28;20469;-71
2022/11/29 05:26:46;;;;;;;50.78;26.25;;;;;;;6.51;100.00;100305.50;4986593;28;20061;-68
2022/11/29 05:29:23;;;;;;;43.38;24.92;;;;;;;6.52;100.00;100307.22;4985038;28;20051;-69
2022/11/29 05:32:24;;;;;;;52.10;26.08;;;;;;;6.32;100.00;100274.50;4995583;28;20042;-71
2022/11/29 05:35:21;;;;;;;46.83;25.08;;;;;;;6.51;100.00;100314.25;4978123;28;20050;-70
2022/11/29 05:37:51;;;;;;;46.70;24.02;;;;;;;6.52;100.00;100310.72;4972480;28;20081;-70
2022/11/29 05:40:43;;;;;;;48.55;24.90;;;;;;;6.58;100.00;100307.91;4998506;28;20068;-71
2022/11/29 05:43:34;;;;;;;49.55;26.02;;;;;;;6.60;100.00;100311.34;4984672;28;20608;-69
2022/11/29 05:46:17;;;;;;;48.67;25.80;;;;;;;6.57;100.00;100316.69;4987203;28;20051;-71
2022/11/29 05:49:21;;;;;;;49.17;25.08;;;;;;;6.59;100.00;100319.28;4979789;28;20159;-70
2022/11/29 05:52:08;;;;;;;55.75;28.35;;;;;;;6.60;100.00;100326.28;4992213;28;20050;-70
2022/11/29 05:54:55;;;;;;;46.95;25.17;;;;;;;6.42;100.00;100298.78;4985064;28;20122;-70
2022/11/29 05:57:39;;;;;;;51.58;27.02;;;;;;;6.56;100.00;100325.50;4980670;28;20053;-70
2022/11/29 06:00:10;;;;;;;47.88;25.27;;;;;;;6.53;100.00;100333.47;4988859;28;20050;-69
2022/11/29 06:02:55;;;;;;;48.05;25.27;;;;;;;6.46;100.00;100312.66;4993993;28;20128;-69
2022/11/29 06:05:47;;;;;;;53.67;27.23;;;;;;;6.54;100.00;100327.31;4986277;28;20074;-69
2022/11/29 06:08:28;;;;;;;49.15;26.10;;;;;;;6.36;100.00;100304.22;4963565;28;20054;-69
2022/11/29 06:11:15;;;;;;;;;;;;;;;6.54;100.00;100337.84;4994873;28;20054;-69
2022/11/29 06:14:06;;;;;;;51.67;26.50;;;;;;;6.51;100.00;100337.94;4988144;28;19968;-70
2022/11/29 06:16:33;;;;;;;49.22;26.38;;;;;;;6.51;100.00;100340.56;4981342;28;20046;-70
2022/11/29 06:19:31;;;;;;;53.45;26.63;;;;;;;6.50;100.00;100337.97;4975967;28;20054;-68
2022/11/29 06:22:19;;;;;;;55.30;28.35;;;;;;;6.49;100.00;100350.25;4990472;28;20117;-69
2022/11/29 06:25:15;;;;;;;53.95;27.73;;;;;;;6.49;100.00;100346.78;4985493;28;20108;-69
2022/11/29 06:27:57;;;;;;;56.92;27.90;;;;;;;6.47;100.00;100341.56;4976005;28;20073;-69
2022/11/29 06:31:00;;;;;;;52.60;27.50;;;;;;;6.40;100.00;100326.03;4986753;28;20046;-69
2022/11/29 06:33:42;;;;;;;52.30;25.17;;;;;;;6.41;100.00;100326.00;4983630;28;20042;-70
2022/11/29 06:36:13;;;;;;;54.20;26.10;;;;;;;6.51;100.00;100339.69;4984701;28;20056;-69
2022/11/29 06:38:40;;;;;;;49.58;26.48;;;;;;;6.56;100.00;100350.94;4981920;28;20056;-70
2022/11/29 06:41:13;;;;;;;50.42;26.60;;;;;;;6.52;100.00;100347.53;4989490;28;20046;-69
2022/11/29 06:43:40;;;;;;;49.92;26.25;;;;;;;6.51;100.00;100352.84;4996416;28;20072;-69
2022/11/29 06:46:31;;;;;;;48.53;26.27;;;;;;;6.51;100.00;100356.34;4989618;28;20093;-69
2022/11/29 06:49:02;;;;;;;51.80;27.10;;;;;;;6.49;100.00;100347.63;4978888;28;20070;-71
2022/11/29 06:51:39;;;;;;;57.17;28.98;;;;;;;6.51;100.00;100356.34;4984345;28;20046;-70
2022/11/29 06:54:24;;;;;;;53.28;26.33;;;;;;;6.52;100.00;100351.94;4988194;28;20052;-70
2022/11/29 06:57:05;;;;;;;50.65;26.55;;;;;;;6.51;100.00;100353.72;4981762;28;20057;-70
2022/11/29 06:59:36;;;;;;;53.88;26.85;;;;;;;6.59;100.00;100356.97;4984172;28;20056;-69
2022/11/29 07:02:21;;;;;;;55.65;26.95;;;;;;;6.60;100.00;100355.22;4994152;28;20050;-69
2022/11/29 07:05:06;;;;;;;59.30;28.65;;;;;;;6.60;100.00;100363.97;4990538;28;20057;-72
2022/11/29 07:07:34;;;;;;;53.00;27.13;;;;;;;6.61;100.00;100364.84;4983857;28;20134;-71
2022/11/29 07:10:04;;;;;;;60.15;28.40;;;;;;;6.62;100.00;100372.66;4989788;28;20056;-70
2022/11/29 07:12:35;;;;;;;56.83;27.90;;;;;;;6.64;100.00;100376.09;4993742;28;20443;-70
2022/11/29 07:15:02;;;;;;;51.70;26.65;;;;;;;6.61;100.00;100370.94;4992307;28;20072;-70
2022/11/29 07:17:47;;;;;;;56.10;27.67;;;;;;;6.68;100.00;100374.25;4979844;28;20054;-71
2022/11/29 07:20:38;;;;;;;56.38;27.80;;;;;;;6.54;100.00;100353.63;4986322;28;20047;-71
2022/11/29 07:23:49;;;;;;;56.25;27.85;;;;;;;6.75;100.00;100388.09;4991995;28;20050;-71
2022/11/29 07:26:40;;;;;;;55.80;27.55;;;;;;;6.76;100.00;100388.03;4986388;28;20046;-70
2022/11/29 07:29:18;;;;;;;54.60;28.05;;;;;;;6.75;100.00;100388.09;4977482;28;20058;-70
2022/11/29 07:32:00;;;;;;;58.90;27.75;;;;;;;6.66;100.00;100379.53;4991786;28;20085;-69
2022/11/29 07:34:53;;;;;;;52.08;27.02;;;;;;;6.73;100.00;100388.13;4985017;28;20054;-69
2022/11/29 07:37:33;;;;;;;60.15;28.30;;;;;;;6.74;100.00;100400.38;4974561;28;20043;-70
2022/11/29 07:40:16;;;;;;;51.78;27.55;;;;;;;6.77;100.00;100405.50;4978333;28;20062;-71
2022/11/29 07:42:49;;;;;;;56.40;29.27;;;;;;;6.78;100.00;100409.88;4982681;28;20093;-69
2022/11/29 07:45:34;;;;;;;67.25;31.30;;;;;;;6.75;100.00;100402.09;4979354;28;20080;-70
2022/11/29 07:48:01;;;;;;;59.33;29.90;;;;;;;6.78;100.00;100404.59;4975780;28;20173;-69
2022/11/29 07:50:29;;;;;;;63.45;31.75;;;;;;;6.81;100.00;100407.16;4980400;28;20181;-69
2022/11/29 07:52:56;;;;;;;66.50;31.92;;;;;;;6.83;100.00;100407.09;4981126;28;20168;-70
2022/11/29 07:55:24;;;;;;;54.47;28.90;;;;;;;6.65;100.00;100379.59;4978530;28;20140;-69
2022/11/29 07:57:52;;;;;;;60.40;30.20;;;;;;;6.83;100.00;100415.88;4972325;28;20056;-69
2022/11/29 08:00:19;;;;;;;63.10;30.42;;;;;;;6.85;100.00;100415.81;4971333;28;20051;-70
2022/11/29 08:02:47;;;;;;;58.15;28.88;;;;;;;6.85;100.00;100411.41;4999358;28;20120;-70
2022/11/29 08:05:14;;;;;;;57.78;29.35;;;;;;;6.85;100.00;100411.41;4986873;28;20050;-71
2022/11/29 08:07:41;;;;;;;54.75;28.17;;;;;;;6.90;100.00;100408.66;4986623;28;20147;-68
2022/11/29 08:10:14;;;;;;;54.13;27.33;;;;;;;6.95;100.00;100426.00;4995463;28;20140;-69
2022/11/29 08:12:46;;;;;;;62.00;29.65;;;;;;;6.97;100.00;100420.69;4985283;28;20585;-69
2022/11/29 08:15:13;;;;;;;56.85;30.23;;;;;;;6.96;100.00;100424.22;4995389;28;20828;-70
2022/11/29 08:17:40;;;;;;;61.63;28.63;;;;;;;6.98;100.00;100433.81;4975714;28;20046;-69
2022/11/29 08:20:08;;;;;;;51.75;27.27;;;;;;;6.98;100.00;100430.31;4981257;28;20129;-70
2022/11/29 08:22:34;;;;;;;55.65;27.70;;;;;;;6.98;100.00;100440.84;4978945;28;21231;-68
2022/11/29 08:25:01;;;;;;;56.15;28.73;;;;;;;6.92;100.00;100430.53;4983749;28;20061;-69
2022/11/29 08:27:28;;;;;;;55.53;28.73;;;;;;;6.79;100.00;100416.00;4975224;28;20162;-68
2022/11/29 08:29:55;;;;;;;57.97;28.23;;;;;;;6.89;100.00;100433.25;4981227;28;20146;-69
2022/11/29 08:32:21;;;;;;;58.05;27.85;;;;;;;6.95;100.00;100447.06;4981003;28;20517;-68
2022/11/29 08:34:48;;;;;;;60.58;30.15;;;;;;;6.93;100.00;100450.66;4975912;28;20057;-70
2022/11/29 08:37:14;;;;;;;59.33;29.17;;;;;;;6.92;100.00;100455.09;4986024;28;20046;-69
2022/11/29 08:39:41;;;;;;;64.97;29.73;;;;;;;6.77;100.00;100423.09;4992940;28;20046;-69
2022/11/29 08:42:08;;;;;;;63.85;28.83;;;;;;;6.93;100.00;100448.00;4976906;28;20050;-70
2022/11/29 08:44:35;;;;;;;52.85;27.10;;;;;;;6.95;100.00;100456.72;4986082;28;20053;-70
2022/11/29 08:50:02;;;;;;;57.50;29.42;;;;;;;7.06;100.00;100459.06;4982346;28;20053;-70
2022/11/29 08:55:21;;;;;;;;;;;;;;;7.07;100.00;100466.91;4983265;28;20471;-68
2022/11/29 08:57:50;;;;;;;58.00;28.13;;;;;;;7.02;100.00;100468.81;4979220;28;19925;-69
2022/11/29 09:00:18;;;;;;;58.88;29.90;;;;;;;6.86;100.00;100443.88;4984627;28;20046;-71
2022/11/29 09:02:44;;;;;;;60.90;29.80;;;;;;;6.99;100.00;100474.16;4984011;28;20046;-68
2022/11/29 09:05:11;;;;;;;63.47;29.17;;;;;;;7.00;100.00;100475.88;4988683;28;20048;-67
2022/11/29 09:07:38;;;;;;;61.20;30.15;;;;;;;7.02;100.00;100481.97;4980319;28;20043;-70
2022/11/29 09:10:07;;;;;;;68.70;32.28;;;;;;;7.01;100.00;100480.25;4982394;28;20057;-70
2022/11/29 09:12:34;;;;;;;73.30;33.33;;;;;;;7.00;100.00;100475.88;4986647;28;20050;-68
2022/11/29 09:15:04;;;;;;;77.53;33.22;;;;;;;7.00;100.00;100495.19;4986962;28;20154;-69
2022/11/29 09:17:30;;;;;;;74.78;34.75;;;;;;;6.98;100.00;100491.72;4979679;28;20101;-69
2022/11/29 09:19:57;;;;;;;86.82;36.92;;;;;;;6.96;100.00;100488.28;4980152;28;20050;-69
2022/11/29 09:22:23;;;;;;;85.22;37.35;;;;;;;6.95;100.00;100491.81;4984683;28;20569;-69
2022/11/29 09:24:50;;;;;;;87.63;36.75;;;;;;;6.95;100.00;100491.81;4991615;28;20042;-69
2022/11/29 09:27:17;;;;;;;87.97;36.20;;;;;;;6.94;100.00;100492.72;4985087;28;20137;-70
2022/11/29 09:29:43;;;;;;;77.82;34.55;;;;;;;6.95;100.00;100496.22;4978485;28;20463;-69
2022/11/29 09:32:10;;;;;;;82.82;35.63;;;;;;;6.98;100.00;100501.41;4984473;28;20046;-70
2022/11/29 09:34:36;;;;;;;88.80;37.42;;;;;;;6.98;100.00;100501.41;4988172;28;20082;-69
2022/11/29 09:37:04;;;;;;;90.18;37.22;;;;;;;6.93;100.00;100504.16;4985316;28;20073;-69
2022/11/29 09:39:30;;;;;;;94.10;39.97;;;;;;;6.95;100.00;100502.34;4977457;28;20462;-70
2022/11/29 09:42:26;;;;;;;86.18;38.10;;;;;;;6.96;100.00;100514.59;4985583;28;20212;-71
2022/11/29 09:45:17;;;;;;;91.35;38.33;;;;;;;6.97;100.00;100508.44;4986438;28;20133;-72
2022/11/29 09:48:29;;;;;;;85.63;37.80;;;;;;;7.01;100.00;100517.97;4980773;28;20147;-69
2022/11/29 09:51:22;;;;;;;85.85;35.78;;;;;;;7.03;100.00;100520.56;4987987;28;20136;-69
2022/11/29 09:54:12;;;;;;;85.70;35.50;;;;;;;7.01;100.00;100525.00;4978911;28;20130;-72
2022/11/29 09:56:57;;;;;;;90.80;37.85;;;;;;;6.98;100.00;100522.47;4977368;28;20054;-69
2022/11/29 09:59:26;;;;;;;99.97;38.10;;;;;;;6.98;100.00;100517.19;4978042;28;20483;-71
2022/11/29 10:02:03;;;;;;;92.32;38.00;;;;;;;6.96;100.00;100521.63;4986257;28;20066;-68
2022/11/29 10:04:39;;;;;;;94.22;39.80;;;;;;;6.97;100.00;100518.97;4987793;28;20054;-70
2022/11/29 10:07:32;;;;;;;98.63;40.15;;;;;;;7.01;100.00;100519.75;4993666;28;20042;-71
2022/11/29 10:10:05;;;;;;;90.47;38.65;;;;;;;7.03;100.00;100520.56;4979473;28;20624;-69
2022/11/29 10:12:45;;;;;;;94.03;38.60;;;;;;;7.01;100.00;100511.84;4981940;28;20069;-69
2022/11/29 10:15:20;;;;;;;95.93;40.33;;;;;;;7.10;100.00;100521.22;4987247;28;20049;-69
2022/11/29 10:17:53;;;;;;;90.13;37.75;;;;;;;7.15;100.00;100514.03;4978579;28;20050;-68
2022/11/29 10:20:26;;;;;;;91.32;40.92;;;;;;;7.16;100.00;100507.88;4971293;28;20117;-69
2022/11/29 10:23:25;;;;;;;90.50;38.60;;;;;;;7.24;100.00;100513.78;4989267;28;20559;-69
2022/11/29 10:25:54;;;;;;;93.43;41.72;;;;;;;7.12;100.00;100493.94;4981524;28;20148;-69
2022/11/29 10:28:25;;;;;;;84.55;39.50;;;;;;;7.11;100.00;100486.06;4975568;28;20161;-70
2022/11/29 10:30:52;;;;;;;;;;;;;;;7.28;100.00;100503.06;4983868;28;20055;-69
2022/11/29 10:33:20;;;;;;;89.25;39.55;;;;;;;7.29;100.00;100506.56;4988798;28;20401;-70
2022/11/29 10:35:49;;;;;;;83.15;39.17;;;;;;;7.28;100.00;100502.22;4989481;28;20043;-68
2022/11/29 10:38:16;;;;;;;79.95;39.38;;;;;;;7.30;100.00;100498.63;4976459;28;20058;-68
2022/11/29 10:41:13;;;;;;;82.07;38.17;;;;;;;7.24;100.00;100485.63;4995682;28;20583;-68
2022/11/29 10:43:41;;;;;;;91.22;38.95;;;;;;;7.42;100.00;100504.41;4990786;28;20061;-71
2022/11/29 10:46:19;;;;;;;84.75;40.38;;;;;;;7.26;100.00;100483.81;4991803;28;20050;-72
2022/11/29 10:48:46;;;;;;;90.40;40.67;;;;;;;7.41;100.00;100511.44;4980142;28;20074;-70
2022/11/29 10:51:16;;;;;;;86.55;40.67;;;;;;;7.40;100.00;100509.72;5002253;28;20137;-72
2022/11/29 10:53:44;;;;;;;87.68;38.75;;;;;;;7.40;100.00;100510.56;4985242;28;20053;-70
2022/11/29 10:56:34;;;;;;;91.05;40.17;;;;;;;7.43;100.00;100511.41;4986173;28;20133;-68
2022/11/29 10:59:05;;;;;;;85.93;40.00;;;;;;;7.46;100.00;100511.31;4981201;28;20360;-70
2022/11/29 11:01:37;;;;;;;86.28;39.13;;;;;;;7.46;100.00;100513.94;4991029;28;20129;-70
2022/11/29 11:04:08;;;;;;;90.85;39.83;;;;;;;7.46;100.00;100520.06;4989065;28;20159;-70
2022/11/29 11:06:50;;;;;;;85.03;37.92;;;;;;;7.56;100.00;100518.84;4982019;28;20416;-70
2022/11/29 11:09:26;;;;;;;91.10;40.25;;;;;;;7.62;100.00;100521.28;4971760;28;20082;-69
2022/11/29 11:11:56;;;;;;;89.30;39.42;;;;;;;7.47;100.00;100487.53;4978306;28;20038;-70
2022/11/29 11:14:27;;;;;;;89.72;40.20;;;;;;;7.51;100.00;100490.94;4976361;28;20426;-69
2022/11/29 11:16:54;;;;;;;93.63;40.70;;;;;;;7.63;100.00;100512.47;4982306;28;20057;-71
2022/11/29 11:19:26;;;;;;;84.57;40.17;;;;;;;7.46;100.00;100491.09;4974761;28;20093;-69
2022/11/29 11:22:01;;;;;;;84.95;39.28;;;;;;;7.64;100.00;100521.25;4979380;28;20125;-69
2022/11/29 11:24:32;;;;;;;86.18;39.95;;;;;;;7.62;100.00;100526.56;4972201;28;20129;-69
2022/11/29 11:26:59;;;;;;;;;;;;;;;7.69;100.00;100527.25;4974413;28;20478;-69
2022/11/29 11:29:31;;;;;;;80.03;37.55;;;;;;;7.55;100.00;100500.47;4973580;28;20386;-69
2022/11/29 11:31:59;;;;;;;90.15;40.05;;;;;;;7.69;100.00;100511.44;4980549;28;20050;-70
2022/11/29 11:34:33;;;;;;;88.45;38.92;;;;;;;7.77;100.00;100519.06;4989188;28;20127;-68
2022/11/29 11:37:15;;;;;;;85.72;39.05;;;;;;;7.59;100.00;100499.44;4985305;28;20072;-69
2022/11/29 11:39:44;;;;;;;84.57;38.05;;;;;;;7.72;100.00;100522.72;4977593;28;20441;-68
2022/11/29 11:42:36;;;;;;;96.82;43.17;;;;;;;7.73;100.00;100528.84;4993462;28;20097;-69
2022/11/29 11:45:12;;;;;;;93.40;42.65;;;;;;;7.70;100.00;100524.56;4994398;28;20050;-68
2022/11/29 11:47:43;;;;;;;86.70;41.80;;;;;;;7.78;100.00;100526.06;4991068;28;20051;-69
2022/11/29 11:50:15;;;;;;;100.90;44.75;;;;;;;7.88;100.00;100525.69;4975679;28;20085;-69
2022/11/29 11:52:47;;;;;;;87.95;41.10;;;;;;;7.96;100.00;100525.44;4975833;28;20065;-69
2022/11/29 11:55:16;;;;;;;86.72;40.58;;;;;;;8.06;100.00;100527.69;4981384;28;20513;-71
2022/11/29 11:57:43;;;;;;;80.60;40.63;;;;;;;8.08;100.00;100531.16;4995864;28;20078;-70